Impacts METAR Board INFO
IDs:

KIAH - Houston/Bush Intl, TX, US

Updated at: 0856 UTC 22 Feb 2018
Potential Impact None Slight Moderate High
Time21/20Z 21/21Z 21/22Z 21/23Z 22/00Z 22/01Z 22/02Z 22/03Z 22/04Z 22/05Z 22/06Z 22/07Z 22/08Z
VIS2 1 3 3 4 1 5 10 8 10
CIG5 3 5 5 6 5 5 6 5 6
CoverOVCOVCOVCOVCOVCOVCOVCOVCOVCOVC
FltCatIFRLIFRIFRIFRIFRIFRIFRIFRIFRIFR
WX-TSRA BR-RA BR-TSRABRBR+TSRA BR-RA BR--+RA-RA
WDir35031030030034033033032035010
WSpd8 8 9 9 5 7 10 9 7 7
WGst-- -- -- -- -- -- -- -- -- --
Raw hourly METARs
KIAH 211953Z 35008KT 2SM -TSRA BR BKN005 OVC015CB 15/14 A3005 RMK AO2 SFC VIS 5 TSB02 SLP176 OCNL LTGCCCG N-SE TS N-SE MOV NE P0087 T01500144
KIAH 212053Z 31008KT 1SM -RA BR BKN003 OVC012TCU 16/15 A3005 RMK AO2 SFC VIS 5 TSE10 SLP175 TCU NE-S MOV NE TWR IN CLDS P0010 60111 T01560150 56011
KIAH 212153Z 30009KT 3SM -TSRA OVC005CB 16/15 A3006 RMK AO2 SFC VIS 7 TSB15 SLP179 OCNL LTGICCG NE TS NE MOV NE P0001 T01610150
KIAH 212253Z 30009KT 3SM BR OVC005 16/14 A3010 RMK AO2 SFC VIS 5 RAE03B37E48 TSE11 SLP191 VCSH NE-S P0000 T01560144
KIAH 212353Z 34005KT 4SM BR OVC006 14/14 A3011 RMK AO2 SLP196 60112 T01440139 10161 20139 53020



KIAH 220405Z 33007KT 1SM +TSRA BR BKN005CB OVC011 12/12 A3017 RMK AO2 FRQ LTGICCG OHD SE-SW TS OHD SE-SW MOV NE P0001 T01220117
KIAH 220453Z 33010KT 5SM -RA BR BKN005 OVC012 12/11 A3019 RMK AO2 LTG DSNT N-E TSE44 SLP225 CB DSNT N-E MOV NE P0020 T01170111
KIAH 220553Z 32009KT 10SM BKN006 OVC016 11/10 A3021 RMK AO2 LTG DSNT NE AND NW RAE53 SLP229 CB DSNT NE NW MOV NE P0008 60028 T01060100 10144 20106 402390106 53014
KIAH 220653Z 35007KT 8SM +RA BKN005 OVC014 11/10 A3020 RMK AO2 LTG DSNT W-NE RAB0555 SLP226 P0011 T01060100
KIAH 220753Z 01007KT 10SM -RA BKN006 OVC011 11/10 A3019 RMK AO2 SLP223 P0004 T01060100